sensor_id;sensor_type;location;lat;lon;timestamp;pressure;altitude;pressure_sealevel;temperature;humidity
64095;BME280;50353;51.420;5.682;2023-02-15T00:01:26;102642.06;;;2.45;78.75
64095;BME280;50353;51.420;5.682;2023-02-15T00:03:52;102644.72;;;2.62;77.53
64095;BME280;50353;51.420;5.682;2023-02-15T00:06:17;102647.25;;;2.39;79.71
64095;BME280;50353;51.420;5.682;2023-02-15T00:08:44;102635.03;;;2.14;82.07
64095;BME280;50353;51.420;5.682;2023-02-15T00:11:12;102624.66;;;2.42;84.87
64095;BME280;50353;51.420;5.682;2023-02-15T00:13:39;102629.88;;;2.44;82.85
64095;BME280;50353;51.420;5.682;2023-02-15T00:16:12;102618.59;;;2.56;82.97
64095;BME280;50353;51.420;5.682;2023-02-15T00:18:40;102630.81;;;2.60;84.00
64095;BME280;50353;51.420;5.682;2023-02-15T00:21:09;102624.72;;;2.68;83.18
64095;BME280;50353;51.420;5.682;2023-02-15T00:23:35;102635.19;;;2.82;81.52
64095;BME280;50353;51.420;5.682;2023-02-15T00:26:11;102620.38;;;2.67;80.87
64095;BME280;50353;51.420;5.682;2023-02-15T00:28:37;102629.09;;;2.82;80.75
64095;BME280;50353;51.420;5.682;2023-02-15T00:31:08;102623.84;;;2.54;83.00
64095;BME280;50353;51.420;5.682;2023-02-15T00:33:34;102636.03;;;2.64;81.75
64095;BME280;50353;51.420;5.682;2023-02-15T00:36:00;102629.06;;;2.66;82.08
64095;BME280;50353;51.420;5.682;2023-02-15T00:38:27;102626.47;;;2.69;79.16
64095;BME280;50353;51.420;5.682;2023-02-15T00:41:00;102622.13;;;2.76;80.94
64095;BME280;50353;51.420;5.682;2023-02-15T00:43:27;102616.91;;;2.70;86.21
64095;BME280;50353;51.420;5.682;2023-02-15T00:45:53;102619.47;;;2.51;83.05
64095;BME280;50353;51.420;5.682;2023-02-15T00:48:18;102614.22;;;2.38;82.67
64095;BME280;50353;51.420;5.682;2023-02-15T00:51:10;102605.50;;;2.35;80.45
64095;BME280;50353;51.420;5.682;2023-02-15T00:53:36;102603.78;;;2.38;80.80
64095;BME280;50353;51.420;5.682;2023-02-15T00:56:01;102606.41;;;2.56;80.82
64095;BME280;50353;51.420;5.682;2023-02-15T00:58:26;102599.44;;;2.33;83.71
64095;BME280;50353;51.420;5.682;2023-02-15T01:00:52;102604.56;;;2.16;82.32
64095;BME280;50353;51.420;5.682;2023-02-15T01:03:19;102607.22;;;2.26;83.03
64095;BME280;50353;51.420;5.682;2023-02-15T01:05:47;102589.81;;;2.17;81.91
64095;BME280;50353;51.420;5.682;2023-02-15T01:08:13;102597.69;;;2.29;82.31
64095;BME280;50353;51.420;5.682;2023-02-15T01:10:38;102600.25;;;2.25;81.67
64095;BME280;50353;51.420;5.682;2023-02-15T01:13:04;102604.59;;;2.21;80.62
64095;BME280;50353;51.420;5.682;2023-02-15T01:15:30;102602.72;;;1.89;81.62
64095;BME280;50353;51.420;5.682;2023-02-15T01:17:55;102594.94;;;1.95;83.06
64095;BME280;50353;51.420;5.682;2023-02-15T01:20:23;102591.44;;;1.95;83.02
64095;BME280;50353;51.420;5.682;2023-02-15T01:22:49;102591.50;;;2.01;82.52
64095;BME280;50353;51.420;5.682;2023-02-15T01:25:18;102575.84;;;2.01;84.70
64095;BME280;50353;51.420;5.682;2023-02-15T01:27:44;102579.34;;;2.05;84.66
64095;BME280;50353;51.420;5.682;2023-02-15T01:30:10;102574.09;;;1.95;83.22
64095;BME280;50353;51.420;5.682;2023-02-15T01:32:36;102574.03;;;1.89;84.33
64095;BME280;50353;51.420;5.682;2023-02-15T01:35:01;102568.88;;;1.95;83.42
64095;BME280;50353;51.420;5.682;2023-02-15T01:37:27;102570.63;;;2.04;83.35
64095;BME280;50353;51.420;5.682;2023-02-15T01:39:52;102567.19;;;2.19;82.13
64095;BME280;50353;51.420;5.682;2023-02-15T01:42:22;102561.06;;;2.00;81.37
64095;BME280;50353;51.420;5.682;2023-02-15T01:47:23;102562.66;;;1.72;83.14
64095;BME280;50353;51.420;5.682;2023-02-15T01:50:01;102558.34;;;1.78;84.30
64095;BME280;50353;51.420;5.682;2023-02-15T01:52:27;102558.41;;;1.83;82.77
64095;BME280;50353;51.420;5.682;2023-02-15T01:54:53;102559.25;;;1.82;84.28
64095;BME280;50353;51.420;5.682;2023-02-15T01:57:22;102555.75;;;1.80;82.63
64095;BME280;50353;51.420;5.682;2023-02-15T01:59:53;102545.16;;;1.41;85.08
64095;BME280;50353;51.420;5.682;2023-02-15T02:02:20;102542.66;;;1.61;84.84
64095;BME280;50353;51.420;5.682;2023-02-15T02:04:50;102527.91;;;1.74;83.71
64095;BME280;50353;51.420;5.682;2023-02-15T02:07:19;102539.19;;;1.65;80.97
64095;BME280;50353;51.420;5.682;2023-02-15T02:09:45;102550.56;;;1.83;84.05
64095;BME280;50353;51.420;5.682;2023-02-15T02:12:11;102547.13;;;1.96;85.73
64095;BME280;50353;51.420;5.682;2023-02-15T02:14:38;102538.44;;;1.90;84.15
64095;BME280;50353;51.420;5.682;2023-02-15T02:17:16;102547.97;;;1.83;82.26
64095;BME280;50353;51.420;5.682;2023-02-15T02:25:43;102533.94;;;1.55;85.43
64095;BME280;50353;51.420;5.682;2023-02-15T02:34:00;102528.78;;;1.65;82.55
64095;BME280;50353;51.420;5.682;2023-02-15T02:39:20;102528.72;;;1.59;82.33
64095;BME280;50353;51.420;5.682;2023-02-15T02:42:01;102521.81;;;1.69;81.67
64095;BME280;50353;51.420;5.682;2023-02-15T02:44:38;102520.06;;;1.59;82.63
64095;BME280;50353;51.420;5.682;2023-02-15T02:47:22;102522.69;;;1.69;84.14
64095;BME280;50353;51.420;5.682;2023-02-15T02:49:52;102511.31;;;1.52;86.48
64095;BME280;50353;51.420;5.682;2023-02-15T02:52:38;102508.84;;;1.83;84.89
64095;BME280;50353;51.420;5.682;2023-02-15T02:55:07;102515.81;;;1.89;84.22
64095;BME280;50353;51.420;5.682;2023-02-15T02:57:37;102507.84;;;1.50;83.89
64095;BME280;50353;51.420;5.682;2023-02-15T03:00:05;102504.44;;;1.66;84.14
64095;BME280;50353;51.420;5.682;2023-02-15T03:02:37;102507.97;;;1.82;83.21
64095;BME280;50353;51.420;5.682;2023-02-15T03:05:06;102493.13;;;1.60;82.18
64095;BME280;50353;51.420;5.682;2023-02-15T03:07:34;102501.84;;;1.73;83.16
64095;BME280;50353;51.420;5.682;2023-02-15T03:10:03;102504.38;;;1.51;83.70
64095;BME280;50353;51.420;5.682;2023-02-15T03:12:35;102502.56;;;1.33;83.72
64095;BME280;50353;51.420;5.682;2023-02-15T03:15:29;102504.31;;;1.42;83.14
64095;BME280;50353;51.420;5.682;2023-02-15T03:18:18;102499.19;;;1.57;82.14
64095;BME280;50353;51.420;5.682;2023-02-15T03:20:45;102489.56;;;1.44;83.61
64095;BME280;50353;51.420;5.682;2023-02-15T03:23:15;102491.31;;;1.45;85.19
64095;BME280;50353;51.420;5.682;2023-02-15T03:25:44;102493.94;;;1.48;87.00
64095;BME280;50353;51.420;5.682;2023-02-15T03:28:15;102477.28;;;1.15;84.61
64095;BME280;50353;51.420;5.682;2023-02-15T03:30:45;102491.22;;;1.28;85.60
64095;BME280;50353;51.420;5.682;2023-02-15T03:33:14;102486.06;;;1.34;85.72
64095;BME280;50353;51.420;5.682;2023-02-15T03:35:47;102472.16;;;1.32;84.67
64095;BME280;50353;51.420;5.682;2023-02-15T03:38:19;102464.31;;;1.29;84.38
64095;BME280;50353;51.420;5.682;2023-02-15T03:40:46;102470.50;;;1.48;84.36
64095;BME280;50353;51.420;5.682;2023-02-15T03:46:37;102480.84;;;1.32;83.50
64095;BME280;50353;51.420;5.682;2023-02-15T03:49:27;102476.38;;;1.08;82.00
64095;BME280;50353;51.420;5.682;2023-02-15T03:51:56;102464.25;;;1.18;83.46
64095;BME280;50353;51.420;5.682;2023-02-15T03:54:28;102464.34;;;1.33;84.17
64095;BME280;50353;51.420;5.682;2023-02-15T03:59:58;102458.19;;;1.19;83.36
64095;BME280;50353;51.420;5.682;2023-02-15T04:02:58;102446.94;;;1.25;87.43
64095;BME280;50353;51.420;5.682;2023-02-15T04:05:27;102459.97;;;1.29;86.53
64095;BME280;50353;51.420;5.682;2023-02-15T04:07:53;102455.66;;;1.31;88.19
64095;BME280;50353;51.420;5.682;2023-02-15T04:10:18;102454.88;;;1.56;88.66
64095;BME280;50353;51.420;5.682;2023-02-15T04:13:02;102456.66;;;1.61;89.44
64095;BME280;50353;51.420;5.682;2023-02-15T04:15:27;102448.00;;;1.75;89.62
64095;BME280;50353;51.420;5.682;2023-02-15T04:18:11;102458.34;;;1.59;87.95
64095;BME280;50353;51.420;5.682;2023-02-15T04:20:36;102470.53;;;1.57;86.71
64095;BME280;50353;51.420;5.682;2023-02-15T04:23:20;102466.91;;;1.27;84.41
64095;BME280;50353;51.420;5.682;2023-02-15T04:26:04;102464.47;;;1.60;85.62
64095;BME280;50353;51.420;5.682;2023-02-15T04:28:30;102465.28;;;1.52;85.58
64095;BME280;50353;51.420;5.682;2023-02-15T04:30:55;102468.75;;;1.47;87.37
64095;BME280;50353;51.420;5.682;2023-02-15T04:33:20;102468.78;;;1.56;85.36
64095;BME280;50353;51.420;5.682;2023-02-15T04:35:46;102469.63;;;1.47;84.29
64095;BME280;50353;51.420;5.682;2023-02-15T04:38:11;102472.13;;;1.27;83.35
64095;BME280;50353;51.420;5.682;2023-02-15T04:40:36;102457.22;;;1.00;85.88
64095;BME280;50353;51.420;5.682;2023-02-15T04:43:02;102465.16;;;1.25;88.87
64095;BME280;50353;51.420;5.682;2023-02-15T04:45:27;102462.66;;;1.48;88.54
64095;BME280;50353;51.420;5.682;2023-02-15T04:47:53;102461.78;;;1.46;88.79
64095;BME280;50353;51.420;5.682;2023-02-15T04:50:18;102462.63;;;1.42;89.38
64095;BME280;50353;51.420;5.682;2023-02-15T04:52:43;102460.97;;;1.55;87.69
64095;BME280;50353;51.420;5.682;2023-02-15T04:55:08;102456.56;;;1.37;86.79
64095;BME280;50353;51.420;5.682;2023-02-15T04:57:34;102453.91;;;1.32;89.36
64095;BME280;50353;51.420;5.682;2023-02-15T04:59:59;102450.25;;;0.94;88.69
64095;BME280;50353;51.420;5.682;2023-02-15T05:02:24;102451.94;;;0.88;88.50
64095;BME280;50353;51.420;5.682;2023-02-15T05:04:50;102449.56;;;1.31;88.97
64095;BME280;50353;51.420;5.682;2023-02-15T05:07:15;102450.50;;;1.41;87.92
64095;BME280;50353;51.420;5.682;2023-02-15T05:09:40;102445.13;;;1.11;87.28
64095;BME280;50353;51.420;5.682;2023-02-15T05:12:06;102442.56;;;1.19;86.92
64095;BME280;50353;51.420;5.682;2023-02-15T05:14:31;102442.53;;;1.11;86.07
64095;BME280;50353;51.420;5.682;2023-02-15T05:16:56;102442.56;;;1.17;86.83
64095;BME280;50353;51.420;5.682;2023-02-15T05:19:23;102432.19;;;1.28;87.68
64095;BME280;50353;51.420;5.682;2023-02-15T05:21:49;102433.00;;;1.16;90.13
64095;BME280;50353;51.420;5.682;2023-02-15T05:24:15;102432.16;;;1.22;88.16
64095;BME280;50353;51.420;5.682;2023-02-15T05:26:59;102435.56;;;1.09;87.07
64095;BME280;50353;51.420;5.682;2023-02-15T05:29:42;102435.63;;;1.16;86.60
64095;BME280;50353;51.420;5.682;2023-02-15T05:32:08;102439.06;;;1.11;86.59
64095;BME280;50353;51.420;5.682;2023-02-15T05:34:33;102430.41;;;1.12;88.91
64095;BME280;50353;51.420;5.682;2023-02-15T05:36:58;102424.44;;;1.42;90.02
64095;BME280;50353;51.420;5.682;2023-02-15T05:39:24;102437.38;;;1.19;87.56
64095;BME280;50353;51.420;5.682;2023-02-15T05:41:49;102425.13;;;1.03;89.89
64095;BME280;50353;51.420;5.682;2023-02-15T05:44:14;102426.84;;;1.00;92.19
64095;BME280;50353;51.420;5.682;2023-02-15T05:46:40;102421.63;;;0.94;88.08
64095;BME280;50353;51.420;5.682;2023-02-15T05:49:05;102424.25;;;1.04;87.26
64095;BME280;50353;51.420;5.682;2023-02-15T05:51:31;102428.69;;;1.25;87.52
64095;BME280;50353;51.420;5.682;2023-02-15T05:53:56;102428.59;;;0.98;89.38
64095;BME280;50353;51.420;5.682;2023-02-15T05:56:21;102429.44;;;0.97;89.34
64095;BME280;50353;51.420;5.682;2023-02-15T05:58:47;102432.06;;;1.04;88.87
64095;BME280;50353;51.420;5.682;2023-02-15T06:01:15;102432.16;;;1.25;90.71
64095;BME280;50353;51.420;5.682;2023-02-15T06:03:42;102429.44;;;0.96;89.66
64095;BME280;50353;51.420;5.682;2023-02-15T06:06:07;102427.66;;;0.90;88.88
64095;BME280;50353;51.420;5.682;2023-02-15T06:08:33;102429.56;;;1.24;88.76
64095;BME280;50353;51.420;5.682;2023-02-15T06:10:59;102428.66;;;1.09;91.67
64095;BME280;50353;51.420;5.682;2023-02-15T06:13:25;102432.16;;;1.19;91.93
64095;BME280;50353;51.420;5.682;2023-02-15T06:15:50;102428.59;;;0.98;90.11
64095;BME280;50353;51.420;5.682;2023-02-15T06:18:16;102428.66;;;1.11;91.86
64095;BME280;50353;51.420;5.682;2023-02-15T06:20:41;102431.31;;;1.25;89.05
64095;BME280;50353;51.420;5.682;2023-02-15T06:23:06;102426.03;;;1.09;90.01
64095;BME280;50353;51.420;5.682;2023-02-15T06:25:32;102426.06;;;1.15;88.86
64095;BME280;50353;51.420;5.682;2023-02-15T06:27:57;102429.50;;;1.13;89.58
64095;BME280;50353;51.420;5.682;2023-02-15T06:30:22;102427.00;;;1.31;90.37
64095;BME280;50353;51.420;5.682;2023-02-15T06:32:48;102425.19;;;1.15;91.76
64095;BME280;50353;51.420;5.682;2023-02-15T06:35:13;102433.16;;;1.50;91.77
64095;BME280;50353;51.420;5.682;2023-02-15T06:37:39;102432.03;;;0.99;89.84
64095;BME280;50353;51.420;5.682;2023-02-15T06:40:05;102427.63;;;0.87;91.05
64095;BME280;50353;51.420;5.682;2023-02-15T06:42:30;102428.41;;;0.69;89.84
64095;BME280;50353;51.420;5.682;2023-02-15T06:44:56;102428.44;;;0.74;89.96
64095;BME280;50353;51.420;5.682;2023-02-15T06:47:21;102431.81;;;0.60;90.26
64095;BME280;50353;51.420;5.682;2023-02-15T06:49:46;102432.75;;;0.70;89.88
64095;BME280;50353;51.420;5.682;2023-02-15T06:52:12;102435.44;;;0.82;91.24
64095;BME280;50353;51.420;5.682;2023-02-15T06:54:37;102431.25;;;1.12;90.94
64095;BME280;50353;51.420;5.682;2023-02-15T06:57:02;102431.19;;;1.01;88.86
64095;BME280;50353;51.420;5.682;2023-02-15T06:59:28;102433.88;;;1.17;88.70
64095;BME280;50353;51.420;5.682;2023-02-15T07:01:53;102425.16;;;1.09;87.93
64095;BME280;50353;51.420;5.682;2023-02-15T07:04:18;102418.84;;;0.66;88.56
64095;BME280;50353;51.420;5.682;2023-02-15T07:06:44;102419.66;;;0.62;88.95
64095;BME280;50353;51.420;5.682;2023-02-15T07:09:09;102415.47;;;0.84;89.08
64095;BME280;50353;51.420;5.682;2023-02-15T07:11:34;102421.56;;;0.91;88.39
64095;BME280;50353;51.420;5.682;2023-02-15T07:14:18;102421.63;;;1.00;88.27
64095;BME280;50353;51.420;5.682;2023-02-15T07:16:44;102413.06;;;1.29;87.20
64095;BME280;50353;51.420;5.682;2023-02-15T07:19:09;102409.50;;;1.01;86.10
64095;BME280;50353;51.420;5.682;2023-02-15T07:21:35;102405.16;;;1.01;87.28
64095;BME280;50353;51.420;5.682;2023-02-15T07:24:01;102400.84;;;1.05;87.27
64095;BME280;50353;51.420;5.682;2023-02-15T07:26:27;102407.00;;;1.32;88.28
64095;BME280;50353;51.420;5.682;2023-02-15T07:28:52;102404.47;;;1.49;87.96
64095;BME280;50353;51.420;5.682;2023-02-15T07:31:17;102408.88;;;1.81;89.32
64095;BME280;50353;51.420;5.682;2023-02-15T07:33:43;102401.03;;;1.68;89.87
64095;BME280;50353;51.420;5.682;2023-02-15T07:36:09;102407.16;;;1.72;90.95
64095;BME280;50353;51.420;5.682;2023-02-15T07:38:39;102405.44;;;1.96;90.39
64095;BME280;50353;51.420;5.682;2023-02-15T07:41:05;102410.66;;;1.91;90.05
64095;BME280;50353;51.420;5.682;2023-02-15T07:43:34;102390.66;;;2.12;89.92
64095;BME280;50353;51.420;5.682;2023-02-15T07:46:11;102405.44;;;2.47;88.80
64095;BME280;50353;51.420;5.682;2023-02-15T07:48:37;102393.25;;;2.30;89.77
64095;BME280;50353;51.420;5.682;2023-02-15T07:51:05;102391.53;;;2.43;89.65
64095;BME280;50353;51.420;5.682;2023-02-15T07:53:31;102388.03;;;2.46;89.64
64095;BME280;50353;51.420;5.682;2023-02-15T07:56:02;102391.50;;;2.66;89.60
64095;BME280;50353;51.420;5.682;2023-02-15T07:58:27;102393.16;;;2.86;88.47
64095;BME280;50353;51.420;5.682;2023-02-15T08:01:11;102392.31;;;2.87;88.49
64095;BME280;50353;51.420;5.682;2023-02-15T08:03:37;102385.25;;;3.14;87.43
64095;BME280;50353;51.420;5.682;2023-02-15T08:06:02;102379.97;;;3.23;87.34
64095;BME280;50353;51.420;5.682;2023-02-15T08:08:28;102379.16;;;3.12;88.05
64095;BME280;50353;51.420;5.682;2023-02-15T08:11:07;102379.97;;;3.21;87.73
64095;BME280;50353;51.420;5.682;2023-02-15T08:13:53;102378.28;;;3.13;87.46
64095;BME280;50353;51.420;5.682;2023-02-15T08:17:04;102380.69;;;3.53;86.62
64095;BME280;50353;51.420;5.682;2023-02-15T08:19:15;102386.75;;;3.64;87.17
64095;BME280;50353;51.420;5.682;2023-02-15T08:21:43;102366.66;;;3.66;86.62
64095;BME280;50353;51.420;5.682;2023-02-15T08:24:11;102376.09;;;3.89;86.14
64095;BME280;50353;51.420;5.682;2023-02-15T08:26:38;102372.59;;;3.92;85.93
64095;BME280;50353;51.420;5.682;2023-02-15T08:29:04;102376.78;;;4.11;85.84
64095;BME280;50353;51.420;5.682;2023-02-15T08:31:30;102375.09;;;4.05;85.77
64095;BME280;50353;51.420;5.682;2023-02-15T08:33:56;102359.47;;;3.95;85.48
64095;BME280;50353;51.420;5.682;2023-02-15T08:36:24;102372.41;;;4.12;85.37
64095;BME280;50353;51.420;5.682;2023-02-15T08:38:50;102371.41;;;4.27;84.91
64095;BME280;50353;51.420;5.682;2023-02-15T08:41:23;102361.75;;;4.36;84.12
64095;BME280;50353;51.420;5.682;2023-02-15T08:43:53;102366.94;;;4.39;84.14
64095;BME280;50353;51.420;5.682;2023-02-15T08:46:19;102363.16;;;4.68;83.30
64095;BME280;50353;51.420;5.682;2023-02-15T08:48:45;102366.56;;;4.77;83.03
64095;BME280;50353;51.420;5.682;2023-02-15T08:51:12;102354.25;;;4.83;81.74
64095;BME280;50353;51.420;5.682;2023-02-15T08:53:40;102350.53;;;5.01;81.23
64095;BME280;50353;51.420;5.682;2023-02-15T08:56:07;102352.34;;;4.99;81.92
64095;BME280;50353;51.420;5.682;2023-02-15T08:58:33;102362.81;;;4.99;81.46
64095;BME280;50353;51.420;5.682;2023-02-15T09:00:59;102363.78;;;4.89;83.80
64095;BME280;50353;51.420;5.682;2023-02-15T09:03:26;102359.09;;;5.16;82.78
64095;BME280;50353;51.420;5.682;2023-02-15T09:05:57;102348.34;;;5.37;81.29
64095;BME280;50353;51.420;5.682;2023-02-15T09:08:22;102363.78;;;5.59;81.56
64095;BME280;50353;51.420;5.682;2023-02-15T09:10:47;102356.50;;;5.75;80.15
64095;BME280;50353;51.420;5.682;2023-02-15T09:13:12;102355.91;;;5.59;79.80
64095;BME280;50353;51.420;5.682;2023-02-15T09:15:38;102351.31;;;5.72;79.28
64095;BME280;50353;51.420;5.682;2023-02-15T09:18:03;102350.22;;;5.87;79.58
64095;BME280;50353;51.420;5.682;2023-02-15T09:20:31;102353.72;;;5.86;80.33
64095;BME280;50353;51.420;5.682;2023-02-15T09:22:56;102352.41;;;6.15;79.08
64095;BME280;50353;51.420;5.682;2023-02-15T09:25:22;102348.97;;;6.11;80.46
64095;BME280;50353;51.420;5.682;2023-02-15T09:27:47;102347.03;;;6.22;80.39
64095;BME280;50353;51.420;5.682;2023-02-15T09:30:12;102343.25;;;6.37;78.70
64095;BME280;50353;51.420;5.682;2023-02-15T09:32:38;102348.38;;;6.45;79.10
64095;BME280;50353;51.420;5.682;2023-02-15T09:35:03;102337.31;;;6.28;79.40
64095;BME280;50353;51.420;5.682;2023-02-15T09:37:30;102341.19;;;6.55;79.97
64095;BME280;50353;51.420;5.682;2023-02-15T09:39:57;102327.91;;;6.14;79.85
64095;BME280;50353;51.420;5.682;2023-02-15T09:42:40;102324.66;;;6.48;78.82
64095;BME280;50353;51.420;5.682;2023-02-15T09:53:38;102332.88;;;6.76;77.78
64095;BME280;50353;51.420;5.682;2023-02-15T09:56:19;102332.22;;;7.07;78.92
64095;BME280;50353;51.420;5.682;2023-02-15T09:59:11;102338.28;;;6.69;78.78
64095;BME280;50353;51.420;5.682;2023-02-15T10:01:54;102341.47;;;7.27;76.33
64095;BME280;50353;51.420;5.682;2023-02-15T10:09:48;102351.78;;;7.74;73.49
64095;BME280;50353;51.420;5.682;2023-02-15T10:12:32;102340.19;;;7.83;74.06
64095;BME280;50353;51.420;5.682;2023-02-15T10:23:08;102341.44;;;8.37;73.10
64095;BME280;50353;51.420;5.682;2023-02-15T10:25:44;102341.66;;;8.27;73.16
64095;BME280;50353;51.420;5.682;2023-02-15T10:28:19;102344.81;;;8.42;74.14
64095;BME280;50353;51.420;5.682;2023-02-15T10:30:50;102324.13;;;8.61;70.89
64095;BME280;50353;51.420;5.682;2023-02-15T10:33:42;102334.53;;;8.66;71.45
64095;BME280;50353;51.420;5.682;2023-02-15T10:36:36;102341.88;;;8.86;71.84
64095;BME280;50353;51.420;5.682;2023-02-15T10:39:22;102334.88;;;9.14;70.51
64095;BME280;50353;51.420;5.682;2023-02-15T10:42:09;102333.81;;;9.22;70.83
64095;BME280;50353;51.420;5.682;2023-02-15T10:44:55;102327.41;;;9.29;70.31
64095;BME280;50353;51.420;5.682;2023-02-15T10:50:24;102328.66;;;9.45;69.95
64095;BME280;50353;51.420;5.682;2023-02-15T11:06:37;102308.81;;;10.14;68.42
64095;BME280;50353;51.420;5.682;2023-02-15T11:09:14;102311.00;;;10.26;67.43
64095;BME280;50353;51.420;5.682;2023-02-15T11:11:46;102304.16;;;10.47;66.31
64095;BME280;50353;51.420;5.682;2023-02-15T11:14:35;102308.88;;;10.63;66.82
64095;BME280;50353;51.420;5.682;2023-02-15T11:17:13;102299.03;;;10.67;66.12
64095;BME280;50353;51.420;5.682;2023-02-15T11:19:56;102306.00;;;10.69;65.82
64095;BME280;50353;51.420;5.682;2023-02-15T11:22:25;102298.28;;;10.39;66.69
64095;BME280;50353;51.420;5.682;2023-02-15T11:24:51;102297.81;;;10.75;66.04
64095;BME280;50353;51.420;5.682;2023-02-15T11:27:20;102292.88;;;10.90;66.11
64095;BME280;50353;51.420;5.682;2023-02-15T11:32:48;102278.56;;;10.95;65.24
64095;BME280;50353;51.420;5.682;2023-02-15T11:35:32;102273.81;;;10.81;65.11
64095;BME280;50353;51.420;5.682;2023-02-15T11:38:21;102285.47;;;11.22;64.63
64095;BME280;50353;51.420;5.682;2023-02-15T11:41:10;102269.22;;;11.31;63.69
64095;BME280;50353;51.420;5.682;2023-02-15T11:44:02;102271.25;;;11.24;64.08
64095;BME280;50353;51.420;5.682;2023-02-15T11:46:30;102271.09;;;11.29;63.36
64095;BME280;50353;51.420;5.682;2023-02-15T11:48:56;102256.78;;;11.55;62.39
64095;BME280;50353;51.420;5.682;2023-02-15T11:51:22;102256.84;;;11.54;61.78
64095;BME280;50353;51.420;5.682;2023-02-15T11:53:48;102250.50;;;11.58;61.61
64095;BME280;50353;51.420;5.682;2023-02-15T11:56:15;102252.69;;;11.89;61.46
64095;BME280;50353;51.420;5.682;2023-02-15T11:58:58;102246.44;;;12.12;58.90
64095;BME280;50353;51.420;5.682;2023-02-15T12:01:32;102232.13;;;12.16;58.14
64095;BME280;50353;51.420;5.682;2023-02-15T12:06:41;102234.59;;;12.59;56.86
64095;BME280;50353;51.420;5.682;2023-02-15T12:12:30;102234.44;;;12.43;55.45
64095;BME280;50353;51.420;5.682;2023-02-15T12:15:00;102234.03;;;12.72;56.11
64095;BME280;50353;51.420;5.682;2023-02-15T12:17:31;102224.44;;;13.06;56.03
64095;BME280;50353;51.420;5.682;2023-02-15T12:20:04;102208.22;;;12.75;55.81
64095;BME280;50353;51.420;5.682;2023-02-15T12:22:34;102211.63;;;12.77;56.43
64095;BME280;50353;51.420;5.682;2023-02-15T12:25:04;102217.09;;;12.93;55.69
64095;BME280;50353;51.420;5.682;2023-02-15T12:27:45;102206.56;;;12.73;56.26
64095;BME280;50353;51.420;5.682;2023-02-15T12:30:20;102210.34;;;12.86;56.92
64095;BME280;50353;51.420;5.682;2023-02-15T12:32:56;102199.16;;;12.79;55.41
64095;BME280;50353;51.420;5.682;2023-02-15T12:35:32;102200.00;;;12.99;55.24
64095;BME280;50353;51.420;5.682;2023-02-15T12:38:19;102195.66;;;13.15;55.22
64095;BME280;50353;51.420;5.682;2023-02-15T12:41:03;102197.94;;;13.23;54.98
64095;BME280;50353;51.420;5.682;2023-02-15T12:43:34;102190.28;;;13.34;55.46
64095;BME280;50353;51.420;5.682;2023-02-15T12:46:23;102190.44;;;13.31;56.27
64095;BME280;50353;51.420;5.682;2023-02-15T12:49:17;102193.34;;;13.27;55.20
64095;BME280;50353;51.420;5.682;2023-02-15T12:51:54;102203.25;;;13.23;55.16
64095;BME280;50353;51.420;5.682;2023-02-15T12:54:30;102199.34;;;13.30;55.94
64095;BME280;50353;51.420;5.682;2023-02-15T12:56:57;102197.53;;;13.13;55.49
64095;BME280;50353;51.420;5.682;2023-02-15T12:59:23;102194.34;;;13.24;55.17
64095;BME280;50353;51.420;5.682;2023-02-15T13:01:50;102184.75;;;13.22;54.03
64095;BME280;50353;51.420;5.682;2023-02-15T13:04:26;102191.44;;;13.11;55.21
64095;BME280;50353;51.420;5.682;2023-02-15T13:06:58;102180.78;;;12.94;54.94
64095;BME280;50353;51.420;5.682;2023-02-15T13:12:20;102174.75;;;13.27;52.93
64095;BME280;50353;51.420;5.682;2023-02-15T13:14:48;102158.16;;;13.04;53.66
64095;BME280;50353;51.420;5.682;2023-02-15T13:17:17;102161.78;;;12.84;52.31
64095;BME280;50353;51.420;5.682;2023-02-15T13:19:47;102163.31;;;13.07;52.63
64095;BME280;50353;51.420;5.682;2023-02-15T13:22:17;102147.56;;;13.04;51.71
64095;BME280;50353;51.420;5.682;2023-02-15T13:24:48;102157.25;;;13.05;52.90
64095;BME280;50353;51.420;5.682;2023-02-15T13:27:18;102163.41;;;13.06;53.38
64095;BME280;50353;51.420;5.682;2023-02-15T13:29:48;102158.69;;;12.93;54.63
64095;BME280;50353;51.420;5.682;2023-02-15T13:32:33;102153.06;;;12.82;53.13
64095;BME280;50353;51.420;5.682;2023-02-15T13:35:02;102167.75;;;12.89;52.24
64095;BME280;50353;51.420;5.682;2023-02-15T13:37:44;102147.16;;;12.94;53.43
64095;BME280;50353;51.420;5.682;2023-02-15T13:40:30;102147.34;;;12.90;52.24
64095;BME280;50353;51.420;5.682;2023-02-15T13:45:51;102140.38;;;13.06;53.29
64095;BME280;50353;51.420;5.682;2023-02-15T13:48:41;102134.28;;;13.04;53.69
64095;BME280;50353;51.420;5.682;2023-02-15T14:00:20;102136.81;;;13.42;51.83
64095;BME280;50353;51.420;5.682;2023-02-15T14:10:51;102127.72;;;13.29;53.12
64095;BME280;50353;51.420;5.682;2023-02-15T14:13:34;102120.94;;;13.23;53.96
64095;BME280;50353;51.420;5.682;2023-02-15T14:19:03;102125.84;;;13.13;52.27
64095;BME280;50353;51.420;5.682;2023-02-15T14:21:32;102120.91;;;13.06;54.95
64095;BME280;50353;51.420;5.682;2023-02-15T14:31:42;102131.81;;;13.18;54.17
64095;BME280;50353;51.420;5.682;2023-02-15T14:34:19;102124.13;;;13.30;54.29
64095;BME280;50353;51.420;5.682;2023-02-15T14:36:47;102130.88;;;13.37;54.83
64095;BME280;50353;51.420;5.682;2023-02-15T14:42:56;102138.81;;;13.02;53.48
64095;BME280;50353;51.420;5.682;2023-02-15T14:45:35;102130.75;;;12.86;54.01
64095;BME280;50353;51.420;5.682;2023-02-15T14:48:30;102140.78;;;12.79;54.09
64095;BME280;50353;51.420;5.682;2023-02-15T14:50:56;102138.19;;;12.97;54.34
64095;BME280;50353;51.420;5.682;2023-02-15T14:53:54;102138.78;;;12.84;54.56
64095;BME280;50353;51.420;5.682;2023-02-15T14:56:21;102133.16;;;12.91;54.70
64095;BME280;50353;51.420;5.682;2023-02-15T15:01:15;102135.72;;;12.92;54.98
64095;BME280;50353;51.420;5.682;2023-02-15T15:03:50;102146.81;;;12.83;54.38
64095;BME280;50353;51.420;5.682;2023-02-15T15:06:32;102135.50;;;12.79;55.24